Time;durP1;ratioP1;P1;durP2;ratioP2;P2;SDS_P1;SDS_P2;PMS_P1;PMS_P2;Temp;Humidity;BMP_temperature;BMP_pressure;BME280_temperature;BME280_humidity;BME280_pressure;Samples;Min_cycle;Max_cycle;Signal;HPM_P1;HPM_P2
2023/12/22 00:02:07;;;;;;;12.67;3.67;;;9.50;60.40;;;;;;5109267;27;20175;-88
2023/12/22 00:04:33;;;;;;;11.73;4.13;;;9.50;60.90;;;;;;5135739;27;20171;-88
2023/12/22 00:06:58;;;;;;;13.43;3.40;;;9.60;60.90;;;;;;5117311;27;20306;-88
2023/12/22 00:09:24;;;;;;;7.77;3.23;;;9.60;60.10;;;;;;5116378;27;20194;-88
2023/12/22 00:11:49;;;;;;;15.43;3.67;;;9.50;59.90;;;;;;5116374;27;20219;-88
2023/12/22 00:14:15;;;;;;;6.17;2.87;;;9.50;59.70;;;;;;5115975;27;20187;-88
2023/12/22 00:16:41;;;;;;;10.73;3.00;;;9.50;59.70;;;;;;5116691;27;20175;-88
2023/12/22 00:19:06;;;;;;;8.70;3.20;;;9.50;59.70;;;;;;5108286;27;20680;-88
2023/12/22 00:21:32;;;;;;;12.07;3.60;;;9.50;60.20;;;;;;5115349;27;20210;-88
2023/12/22 00:23:58;;;;;;;9.97;3.13;;;9.60;60.60;;;;;;5115828;27;20587;-88
2023/12/22 00:26:23;;;;;;;9.17;3.53;;;9.50;60.10;;;;;;5113305;27;20199;-88
2023/12/22 00:28:49;;;;;;;9.33;3.33;;;9.50;60.00;;;;;;5116714;27;20211;-88
2023/12/22 00:31:14;;;;;;;11.23;3.57;;;9.50;60.40;;;;;;5116525;27;20239;-88
2023/12/22 00:33:40;;;;;;;9.53;3.63;;;9.60;59.70;;;;;;5117143;27;20214;-88
2023/12/22 00:36:06;;;;;;;10.13;3.03;;;9.50;59.60;;;;;;5114269;27;20690;-89
2023/12/22 00:38:32;;;;;;;17.27;4.23;;;9.40;59.90;;;;;;5102363;27;20202;-89
2023/12/22 00:40:57;;;;;;;7.83;2.80;;;9.50;59.60;;;;;;5115928;27;20640;-89
2023/12/22 00:43:23;;;;;;;13.50;3.90;;;9.40;59.00;;;;;;5099744;28;20176;-88
2023/12/22 00:45:49;;;;;;;13.23;3.50;;;9.50;59.40;;;;;;5122630;27;20210;-89
2023/12/22 00:48:15;;;;;;;11.30;3.70;;;9.40;59.10;;;;;;5107625;27;20190;-89
2023/12/22 00:50:41;;;;;;;11.33;3.13;;;9.40;59.20;;;;;;5116053;27;20186;-94
2023/12/22 00:53:07;;;;;;;8.30;3.23;;;9.40;59.30;;;;;;5115802;27;20181;-90
2023/12/22 00:55:32;;;;;;;15.60;3.40;;;9.40;59.40;;;;;;5102328;28;20260;-91
2023/12/22 00:57:58;;;;;;;13.37;4.10;;;9.40;59.40;;;;;;5100716;28;20220;-89
2023/12/22 01:00:23;;;;;;;11.43;3.57;;;9.40;59.20;;;;;;5106073;27;20174;-92
2023/12/22 01:02:49;;;;;;;10.13;3.40;;;9.40;58.60;;;;;;5102077;27;20179;-87
2023/12/22 01:05:15;;;;;;;13.17;3.33;;;9.40;58.70;;;;;;5116345;27;20168;-90
2023/12/22 01:07:41;;;;;;;11.30;3.77;;;9.40;58.50;;;;;;5116644;27;20170;-91
2023/12/22 01:10:07;;;;;;;11.03;3.83;;;9.40;58.20;;;;;;5115547;27;20175;-89
2023/12/22 01:12:32;;;;;;;10.77;3.37;;;9.30;58.00;;;;;;5116035;27;20271;-89
2023/12/22 01:14:58;;;;;;;12.03;2.83;;;9.30;57.80;;;;;;5115617;27;20175;-89
2023/12/22 01:17:24;;;;;;;12.77;3.70;;;9.30;57.80;;;;;;5115997;27;20544;-88
2023/12/22 01:19:51;;;;;;;10.93;3.40;;;9.30;58.00;;;;;;5134804;27;20290;-89
2023/12/22 01:22:16;;;;;;;16.63;4.80;;;9.40;58.00;;;;;;5112984;27;20210;-89
2023/12/22 01:24:43;;;;;;;10.47;3.50;;;9.50;57.50;;;;;;5107743;28;20183;-88
2023/12/22 01:27:12;;;;;;;16.80;4.10;;;9.30;57.00;;;;;;5103254;27;20584;-88
2023/12/22 01:29:38;;;;;;;14.30;3.70;;;9.20;56.80;;;;;;5115542;27;20175;-91
2023/12/22 01:32:04;;;;;;;13.93;3.97;;;9.30;56.90;;;;;;5116418;27;20174;-91
2023/12/22 01:34:29;;;;;;;15.10;3.53;;;9.20;56.70;;;;;;5115502;27;20175;-89
2023/12/22 01:36:55;;;;;;;13.93;4.13;;;9.20;56.40;;;;;;5115313;27;20194;-90
2023/12/22 01:39:21;;;;;;;19.13;3.90;;;9.20;56.10;;;;;;5113374;27;20289;-91
2023/12/22 01:41:46;;;;;;;12.33;4.03;;;9.20;56.20;;;;;;5101579;27;20266;-90
2023/12/22 01:44:12;;;;;;;15.33;4.63;;;9.10;56.00;;;;;;5115810;27;20270;-90
2023/12/22 01:46:38;;;;;;;18.60;3.83;;;9.10;56.20;;;;;;5112941;27;20186;-88
2023/12/22 01:49:07;;;;;;;19.60;4.70;;;9.10;56.10;;;;;;5113014;28;20232;-91
2023/12/22 01:51:37;;;;;;;13.67;4.47;;;9.10;56.20;;;;;;5113058;28;20701;-95
2023/12/22 01:54:04;;;;;;;11.80;3.93;;;9.10;56.20;;;;;;5114176;28;20187;-90
2023/12/22 01:56:29;;;;;;;13.67;3.93;;;9.10;56.00;;;;;;5114355;28;20609;-90
2023/12/22 01:59:00;;;;;;;10.93;3.73;;;9.10;56.40;;;;;;5100403;28;20290;-89
2023/12/22 02:01:27;;;;;;;10.23;4.10;;;9.10;55.70;;;;;;5111509;28;20244;-91
2023/12/22 02:03:54;;;;;;;12.50;3.73;;;9.10;55.50;;;;;;5127023;28;20199;-94
2023/12/22 02:06:20;;;;;;;14.17;4.30;;;9.10;55.70;;;;;;5106714;27;20590;-87
2023/12/22 02:08:50;;;;;;;18.00;5.00;;;9.10;55.80;;;;;;5119711;27;20179;-93
2023/12/22 02:11:16;;;;;;;14.80;4.47;;;9.10;55.90;;;;;;5119692;27;20219;-91
2023/12/22 02:13:45;;;;;;;13.77;4.13;;;9.00;55.40;;;;;;5108311;28;20644;-89
2023/12/22 02:16:22;;;;;;;12.97;4.20;;;9.20;55.90;;;;;;5113776;28;20202;-90
2023/12/22 02:18:51;;;;;;;20.13;4.97;;;9.10;56.00;;;;;;5114264;27;20684;-91
2023/12/22 02:21:17;;;;;;;14.20;3.87;;;9.20;56.20;;;;;;5118869;27;20175;-88
2023/12/22 02:23:42;;;;;;;14.30;4.03;;;9.20;56.50;;;;;;5119750;27;20171;-88
2023/12/22 02:26:17;;;;;;;10.53;4.17;;;9.30;56.70;;;;;;5119349;27;20561;-93
2023/12/22 02:28:45;;;;;;;12.20;4.63;;;9.30;56.30;;;;;;5112186;28;20182;-88
2023/12/22 02:31:22;;;;;;;11.40;4.40;;;9.30;56.00;;;;;;5115464;27;20186;-89
2023/12/22 02:33:52;;;;;;;10.60;3.60;;;9.20;55.60;;;;;;5119717;27;20269;-87
2023/12/22 02:36:20;;;;;;;13.97;4.23;;;9.20;55.80;;;;;;5118875;27;20171;-92
2023/12/22 02:38:47;;;;;;;15.57;4.67;;;9.30;55.70;;;;;;5118689;27;20238;-87
2023/12/22 02:41:13;;;;;;;14.93;4.40;;;9.10;55.90;;;;;;5101376;28;20202;-90
2023/12/22 02:43:39;;;;;;;11.40;3.47;;;9.10;55.80;;;;;;5118124;27;20654;-91
2023/12/22 02:46:13;;;;;;;11.97;3.83;;;9.10;56.20;;;;;;5137090;27;20249;-90
2023/12/22 02:48:38;;;;;;;14.53;4.07;;;9.10;55.70;;;;;;5119068;27;20190;-89
2023/12/22 02:51:04;;;;;;;13.37;4.00;;;9.10;55.50;;;;;;5117252;27;20220;-89
2023/12/22 02:53:30;;;;;;;12.87;4.33;;;9.00;55.00;;;;;;5120905;27;20432;-88
2023/12/22 02:55:56;;;;;;;11.67;3.77;;;9.00;54.90;;;;;;5105960;28;20186;-90
2023/12/22 02:58:21;;;;;;;10.33;3.33;;;8.90;54.90;;;;;;5115494;27;20203;-89
2023/12/22 03:00:47;;;;;;;12.30;3.77;;;9.10;54.90;;;;;;5115370;27;20553;-91
2023/12/22 03:03:13;;;;;;;12.37;3.87;;;9.00;55.00;;;;;;5118686;27;20274;-93
2023/12/22 03:05:39;;;;;;;13.37;3.90;;;9.00;55.10;;;;;;5118218;27;20200;-89
2023/12/22 03:08:04;;;;;;;16.70;4.63;;;9.10;55.10;;;;;;5118315;27;20171;-89
2023/12/22 03:10:30;;;;;;;14.00;3.33;;;8.90;54.60;;;;;;5118656;27;20295;-91
2023/12/22 03:12:56;;;;;;;11.50;3.83;;;8.90;55.00;;;;;;5118729;27;20255;-90
2023/12/22 03:15:21;;;;;;;15.17;4.10;;;8.90;55.60;;;;;;5118355;27;20178;-91
2023/12/22 03:17:47;;;;;;;18.03;4.77;;;8.90;55.70;;;;;;5117211;27;20187;-90
2023/12/22 03:20:13;;;;;;;17.37;4.10;;;8.90;56.00;;;;;;5116474;27;20262;-90
2023/12/22 03:22:38;;;;;;;12.70;3.70;;;8.90;56.00;;;;;;5108849;28;20187;-89
2023/12/22 03:25:04;;;;;;;9.87;3.93;;;8.80;55.90;;;;;;5111302;27;20256;-91
2023/12/22 03:27:30;;;;;;;12.33;4.03;;;8.80;56.00;;;;;;5134047;27;20183;-91
2023/12/22 03:29:55;;;;;;;14.50;4.17;;;8.80;56.30;;;;;;5118421;27;20189;-90
2023/12/22 03:32:21;;;;;;;12.60;3.30;;;8.80;56.20;;;;;;5101795;27;20175;-89
2023/12/22 03:34:46;;;;;;;13.47;4.30;;;8.70;56.10;;;;;;5117454;27;20548;-90
2023/12/22 03:37:12;;;;;;;15.07;4.47;;;8.60;56.30;;;;;;5130972;27;20191;-89
2023/12/22 03:39:38;;;;;;;17.27;4.20;;;8.70;56.20;;;;;;5117123;27;20207;-91
2023/12/22 03:42:04;;;;;;;17.60;4.53;;;8.60;56.30;;;;;;5097323;28;20171;-87
2023/12/22 03:44:29;;;;;;;21.60;4.57;;;8.60;56.00;;;;;;5132440;27;20254;-88
2023/12/22 03:46:55;;;;;;;16.37;4.47;;;8.70;56.10;;;;;;5115675;27;20309;-88
2023/12/22 03:49:21;;;;;;;14.33;4.00;;;8.70;56.10;;;;;;5116709;27;20186;-90
2023/12/22 03:51:47;;;;;;;13.20;4.33;;;8.70;56.30;;;;;;5117766;27;20179;-89
2023/12/22 03:54:12;;;;;;;18.73;4.67;;;8.70;56.30;;;;;;5102899;27;20191;-88
2023/12/22 03:56:38;;;;;;;12.67;4.20;;;8.70;56.10;;;;;;5103655;27;20175;-90
2023/12/22 03:59:04;;;;;;;14.10;3.83;;;8.80;56.20;;;;;;5115580;27;20578;-91
2023/12/22 04:01:29;;;;;;;17.57;4.70;;;8.70;56.20;;;;;;5103257;28;20266;-90
2023/12/22 04:03:55;;;;;;;14.97;4.70;;;8.80;55.80;;;;;;5111048;27;20264;-90
2023/12/22 04:06:20;;;;;;;17.37;4.20;;;8.70;55.60;;;;;;5103487;27;20202;-87
2023/12/22 04:08:46;;;;;;;15.90;4.93;;;8.70;55.80;;;;;;5106395;27;20175;-91
2023/12/22 04:11:11;;;;;;;21.27;4.73;;;8.70;55.80;;;;;;5115242;27;20219;-92
2023/12/22 04:13:37;;;;;;;14.27;4.17;;;8.60;55.50;;;;;;5113420;27;20620;-89
2023/12/22 04:16:05;;;;;;;14.60;4.30;;;8.60;55.80;;;;;;5116877;27;20200;-92
2023/12/22 04:18:31;;;;;;;15.60;3.93;;;8.60;55.90;;;;;;5111101;27;20725;-89
2023/12/22 04:20:56;;;;;;;11.27;4.03;;;8.60;56.10;;;;;;5112074;27;20175;-89
2023/12/22 04:23:22;;;;;;;16.50;3.90;;;8.60;55.80;;;;;;5117290;27;20672;-88
2023/12/22 04:25:48;;;;;;;17.10;4.23;;;8.70;55.80;;;;;;5107954;28;20180;-89
2023/12/22 04:28:14;;;;;;;13.77;3.90;;;8.60;55.50;;;;;;5105816;28;20186;-89
2023/12/22 04:30:39;;;;;;;15.47;4.13;;;8.70;55.50;;;;;;5114646;27;20179;-92
2023/12/22 04:33:05;;;;;;;12.13;3.70;;;8.50;55.30;;;;;;5116851;27;20182;-92
2023/12/22 04:35:30;;;;;;;21.60;4.70;;;8.60;55.70;;;;;;5117035;27;20171;-86
2023/12/22 04:37:56;;;;;;;14.40;4.60;;;8.60;55.60;;;;;;5116291;27;20190;-87
2023/12/22 04:40:22;;;;;;;17.40;4.70;;;8.60;55.50;;;;;;5134523;27;20569;-91
2023/12/22 04:42:47;;;;;;;16.87;4.30;;;8.60;55.50;;;;;;5107065;27;20190;-89
2023/12/22 04:45:13;;;;;;;11.90;3.63;;;8.50;55.60;;;;;;5116430;27;20179;-91
2023/12/22 04:47:39;;;;;;;15.97;4.53;;;8.50;55.70;;;;;;5116459;27;20520;-89
2023/12/22 04:50:04;;;;;;;13.40;4.27;;;8.60;56.00;;;;;;5116085;27;20262;-91
2023/12/22 04:52:30;;;;;;;16.43;4.63;;;8.40;56.10;;;;;;5114834;27;20251;-89
2023/12/22 04:54:56;;;;;;;11.63;4.23;;;8.30;56.90;;;;;;5116228;27;20179;-90
2023/12/22 04:57:22;;;;;;;18.17;5.37;;;8.40;57.60;;;;;;5118378;27;20580;-87
2023/12/22 04:59:47;;;;;;;15.13;4.87;;;8.20;58.40;;;;;;5123038;27;20234;-87
2023/12/22 05:02:13;;;;;;;14.83;5.10;;;8.20;58.50;;;;;;5107667;28;20957;-86
2023/12/22 05:04:38;;;;;;;19.17;4.90;;;8.10;58.60;;;;;;5130182;27;20179;-90
2023/12/22 05:07:06;;;;;;;15.00;5.23;;;8.00;58.70;;;;;;5113652;27;20182;-93
2023/12/22 05:09:35;;;;;;;14.23;4.50;;;8.10;59.30;;;;;;5101745;27;20183;-92
2023/12/22 05:12:01;;;;;;;18.43;4.80;;;7.90;59.40;;;;;;5115056;27;20230;-88
2023/12/22 05:14:26;;;;;;;15.37;4.63;;;8.10;59.60;;;;;;5115856;27;20611;-90
2023/12/22 05:16:55;;;;;;;14.20;4.33;;;8.00;59.40;;;;;;5115638;27;20270;-89
2023/12/22 05:19:21;;;;;;;19.50;4.77;;;7.90;59.20;;;;;;5115558;27;20226;-88
2023/12/22 05:21:49;;;;;;;15.63;4.23;;;7.80;59.10;;;;;;5115577;27;20190;-87
2023/12/22 05:24:14;;;;;;;18.00;4.53;;;7.90;59.40;;;;;;5115922;27;20174;-90
2023/12/22 05:26:40;;;;;;;19.70;5.37;;;7.80;59.40;;;;;;5134377;27;20628;-89
2023/12/22 05:29:08;;;;;;;14.90;5.10;;;7.90;59.40;;;;;;5133965;27;20187;-87
2023/12/22 05:31:34;;;;;;;17.83;4.77;;;7.90;59.40;;;;;;5115207;27;20187;-89
2023/12/22 05:34:00;;;;;;;11.70;3.80;;;7.90;59.20;;;;;;5133680;27;20175;-87
2023/12/22 05:36:25;;;;;;;17.63;5.10;;;7.90;59.10;;;;;;5115262;27;20640;-90
2023/12/22 05:38:51;;;;;;;20.30;5.13;;;8.00;59.10;;;;;;5115502;27;20672;-87
2023/12/22 05:41:17;;;;;;;14.60;4.97;;;7.90;58.80;;;;;;5115291;28;20175;-89
2023/12/22 05:43:42;;;;;;;17.13;4.90;;;7.90;58.80;;;;;;5109615;28;20183;-88
2023/12/22 05:46:09;;;;;;;17.87;4.63;;;8.00;59.00;;;;;;5099777;28;20187;-87
2023/12/22 05:48:35;;;;;;;15.43;4.47;;;8.10;58.70;;;;;;5100053;27;20183;-92
2023/12/22 05:51:03;;;;;;;21.90;5.60;;;8.00;58.40;;;;;;5099371;28;20224;-88
2023/12/22 05:53:29;;;;;;;20.30;4.60;;;7.90;58.40;;;;;;5111596;28;20669;-88
2023/12/22 05:55:54;;;;;;;17.90;4.37;;;8.00;58.50;;;;;;5113408;28;20664;-89
2023/12/22 05:58:20;;;;;;;13.30;4.63;;;8.00;58.40;;;;;;5115394;28;20230;-91
2023/12/22 06:00:45;;;;;;;15.40;4.10;;;8.10;58.50;;;;;;5107351;28;20179;-90
2023/12/22 06:03:11;;;;;;;13.90;4.37;;;8.10;58.40;;;;;;5101650;28;20172;-87
2023/12/22 06:05:37;;;;;;;17.60;4.57;;;8.10;58.00;;;;;;5100975;28;20639;-88
2023/12/22 06:08:02;;;;;;;16.57;4.77;;;8.30;57.90;;;;;;5103568;28;20191;-89
2023/12/22 06:10:28;;;;;;;20.30;5.30;;;8.20;57.90;;;;;;5105134;28;20184;-87
2023/12/22 06:12:53;;;;;;;16.40;4.17;;;8.20;57.20;;;;;;5117424;28;20199;-87
2023/12/22 06:15:19;;;;;;;21.67;5.03;;;8.30;56.90;;;;;;5098513;28;20622;-89
2023/12/22 06:17:45;;;;;;;18.63;5.33;;;8.10;56.40;;;;;;5100082;28;20179;-88
2023/12/22 06:20:10;;;;;;;20.90;5.50;;;8.10;56.30;;;;;;5101181;28;20557;-89
2023/12/22 06:22:36;;;;;;;19.87;5.23;;;8.10;56.10;;;;;;5104457;28;20175;-87
2023/12/22 06:25:07;;;;;;;24.23;5.40;;;8.10;55.50;;;;;;5112352;28;20181;-89
2023/12/22 06:27:36;;;;;;;20.73;5.13;;;8.10;54.80;;;;;;5096726;28;20292;-87
2023/12/22 06:30:03;;;;;;;15.53;4.30;;;8.00;54.50;;;;;;5099565;28;20180;-87
2023/12/22 06:32:29;;;;;;;13.93;4.67;;;8.10;54.50;;;;;;5102882;28;20743;-87
2023/12/22 06:34:59;;;;;;;18.30;4.43;;;8.10;53.60;;;;;;5113877;28;20266;-88
2023/12/22 06:37:25;;;;;;;15.87;4.47;;;8.00;53.30;;;;;;5108775;28;20179;-89
2023/12/22 06:39:50;;;;;;;24.00;5.20;;;8.20;53.40;;;;;;5113919;28;20206;-89
2023/12/22 06:42:16;;;;;;;15.30;4.50;;;8.10;53.20;;;;;;5114560;28;20235;-88
2023/12/22 06:44:43;;;;;;;13.90;4.23;;;8.20;52.30;;;;;;5120387;28;20175;-88
2023/12/22 06:47:09;;;;;;;16.80;4.17;;;8.10;51.00;;;;;;5104713;28;20210;-87
2023/12/22 06:49:34;;;;;;;16.47;3.83;;;8.00;51.00;;;;;;5111108;28;20636;-88
2023/12/22 06:52:01;;;;;;;17.03;4.63;;;8.10;51.40;;;;;;5109010;27;20182;-87
2023/12/22 06:54:26;;;;;;;19.33;4.20;;;8.10;50.90;;;;;;5106763;27;20542;-87
2023/12/22 06:56:52;;;;;;;13.33;4.10;;;8.20;51.40;;;;;;5134118;27;20171;-89
2023/12/22 06:59:17;;;;;;;15.87;4.70;;;8.10;50.70;;;;;;5107821;28;20219;-89
2023/12/22 07:01:43;;;;;;;11.00;3.40;;;8.10;50.80;;;;;;5101446;27;20172;-88
2023/12/22 07:04:09;;;;;;;17.73;4.47;;;8.10;50.80;;;;;;5114886;27;20640;-88
2023/12/22 07:06:34;;;;;;;15.33;4.00;;;8.20;51.00;;;;;;5108258;27;20179;-89
2023/12/22 07:09:16;;;;;;;14.27;4.30;;;8.20;51.20;;;;;;5109293;27;20701;-88
2023/12/22 07:11:44;;;;;;;17.83;4.77;;;8.10;50.90;;;;;;5107043;28;20226;-89
2023/12/22 07:14:10;;;;;;;16.60;4.77;;;8.10;50.50;;;;;;5095071;28;20611;-86
2023/12/22 07:16:36;;;;;;;13.90;3.87;;;8.10;50.20;;;;;;5088339;28;20200;-89
2023/12/22 07:19:03;;;;;;;11.73;3.80;;;8.00;49.90;;;;;;5084712;28;20204;-87
2023/12/22 07:21:29;;;;;;;16.43;3.80;;;8.00;50.10;;;;;;5100333;28;20204;-87
2023/12/22 07:23:54;;;;;;;17.10;4.83;;;8.20;50.30;;;;;;5089432;28;20228;-87
2023/12/22 07:26:24;;;;;;;15.53;4.10;;;8.10;50.30;;;;;;5117781;27;20175;-88
2023/12/22 07:28:50;;;;;;;16.83;4.00;;;8.20;50.40;;;;;;5099795;27;20191;-88
2023/12/22 07:31:15;;;;;;;16.67;5.07;;;8.10;50.50;;;;;;5097498;28;20683;-88
2023/12/22 07:33:41;;;;;;;13.63;4.07;;;8.10;50.10;;;;;;5117822;27;20183;-88
2023/12/22 07:36:07;;;;;;;10.83;4.70;;;8.10;50.00;;;;;;5104402;28;20176;-87
2023/12/22 07:38:33;;;;;;;17.70;4.43;;;8.00;50.00;;;;;;5097212;28;20210;-87
2023/12/22 07:40:58;;;;;;;17.40;3.93;;;8.00;50.00;;;;;;5099885;28;20173;-88
2023/12/22 07:43:24;;;;;;;17.63;4.17;;;7.90;49.60;;;;;;5098203;28;20537;-89
2023/12/22 07:45:51;;;;;;;11.17;3.77;;;8.00;50.20;;;;;;5097837;28;20175;-86
2023/12/22 07:48:17;;;;;;;16.27;4.13;;;8.00;49.80;;;;;;5097662;28;20176;-88
2023/12/22 07:50:42;;;;;;;18.03;3.70;;;8.00;50.00;;;;;;5115066;27;20183;-88
2023/12/22 07:53:08;;;;;;;14.27;4.00;;;7.90;50.00;;;;;;5121963;27;20172;-87
2023/12/22 07:55:34;;;;;;;11.27;3.60;;;7.80;48.90;;;;;;5090554;28;20250;-88
2023/12/22 07:58:00;;;;;;;12.60;3.77;;;7.80;48.60;;;;;;5114507;28;20211;-88
2023/12/22 08:00:25;;;;;;;16.07;3.80;;;7.80;48.70;;;;;;5088766;28;20211;-86
2023/12/22 08:02:52;;;;;;;15.13;3.73;;;7.80;48.60;;;;;;5090002;28;20566;-88
2023/12/22 08:05:18;;;;;;;12.73;4.10;;;7.80;49.40;;;;;;5105126;28;20263;-89
2023/12/22 08:07:44;;;;;;;16.07;4.23;;;7.80;49.30;;;;;;5093755;28;20618;-87
2023/12/22 08:10:10;;;;;;;14.80;4.53;;;7.80;48.90;;;;;;5079392;28;20178;-86
2023/12/22 08:12:36;;;;;;;14.33;4.40;;;7.90;49.00;;;;;;5108598;28;20272;-87
2023/12/22 08:15:02;;;;;;;14.03;4.20;;;7.80;48.70;;;;;;5086035;28;20267;-88
2023/12/22 08:17:28;;;;;;;15.90;4.37;;;7.80;49.20;;;;;;5090303;28;20183;-88
2023/12/22 08:19:53;;;;;;;12.17;4.37;;;7.90;49.20;;;;;;5087633;28;20670;-86
2023/12/22 08:22:19;;;;;;;17.00;4.33;;;7.90;49.40;;;;;;5088382;28;20512;-87
2023/12/22 08:24:45;;;;;;;14.87;3.93;;;7.90;49.60;;;;;;5084296;27;20179;-85
2023/12/22 08:27:10;;;;;;;12.03;4.23;;;7.80;49.40;;;;;;5094682;28;20266;-86
2023/12/22 08:29:36;;;;;;;12.87;4.07;;;7.80;49.60;;;;;;5096117;28;20236;-89
2023/12/22 08:32:02;;;;;;;13.93;4.27;;;7.80;49.60;;;;;;5089456;28;20543;-89
2023/12/22 08:34:28;;;;;;;12.53;3.60;;;7.80;49.60;;;;;;5103891;28;20183;-89
2023/12/22 08:36:53;;;;;;;13.20;3.53;;;7.80;50.00;;;;;;5083218;28;20172;-89
2023/12/22 08:39:19;;;;;;;11.93;4.47;;;7.90;50.50;;;;;;5095233;28;20207;-88
2023/12/22 08:41:45;;;;;;;12.43;4.17;;;8.00;50.60;;;;;;5087590;28;20186;-88
2023/12/22 08:44:14;;;;;;;17.00;5.13;;;8.00;50.60;;;;;;5089850;28;20271;-89
2023/12/22 08:46:40;;;;;;;12.93;4.13;;;8.10;50.70;;;;;;5083329;27;20176;-88
2023/12/22 08:49:05;;;;;;;13.83;4.80;;;8.00;50.30;;;;;;5081745;28;20762;-88
2023/12/22 08:51:31;;;;;;;14.73;3.90;;;7.90;50.40;;;;;;5080395;28;20528;-89
2023/12/22 08:53:58;;;;;;;21.03;4.70;;;8.00;50.60;;;;;;5113057;27;20202;-88
2023/12/22 08:56:24;;;;;;;11.30;4.13;;;8.00;50.60;;;;;;5100845;28;20182;-87
2023/12/22 08:58:52;;;;;;;15.17;3.80;;;8.10;50.60;;;;;;5087312;28;20252;-89
2023/12/22 09:01:18;;;;;;;21.17;4.33;;;8.00;50.70;;;;;;5102761;28;20570;-87
2023/12/22 09:03:47;;;;;;;14.87;4.03;;;8.10;51.20;;;;;;5085779;28;20191;-87
2023/12/22 09:06:21;;;;;;;12.83;4.17;;;8.10;50.70;;;;;;5094676;28;20180;-88
2023/12/22 09:08:47;;;;;;;14.40;4.50;;;8.20;50.80;;;;;;5094351;28;20276;-86
2023/12/22 09:11:16;;;;;;;11.73;4.27;;;8.10;50.70;;;;;;5106391;28;20254;-88
2023/12/22 09:13:43;;;;;;;14.10;4.20;;;8.10;50.50;;;;;;5095436;28;20195;-90
2023/12/22 09:16:10;;;;;;;13.43;4.27;;;8.10;50.30;;;;;;5110648;28;20172;-86
2023/12/22 09:18:36;;;;;;;10.13;3.53;;;8.10;49.90;;;;;;5093963;28;20204;-86
2023/12/22 09:21:02;;;;;;;10.13;3.80;;;8.00;50.00;;;;;;5088730;28;20184;-88
2023/12/22 09:23:28;;;;;;;13.03;4.00;;;8.10;50.00;;;;;;5078787;28;20207;-87
2023/12/22 09:25:54;;;;;;;11.17;3.57;;;8.30;50.00;;;;;;5092557;28;20543;-87
2023/12/22 09:28:20;;;;;;;15.80;5.00;;;8.20;50.00;;;;;;5089726;28;20186;-87
2023/12/22 09:30:45;;;;;;;10.93;3.77;;;8.30;49.90;;;;;;5078775;28;20173;-89
2023/12/22 09:33:12;;;;;;;15.03;4.73;;;8.40;49.90;;;;;;5084055;28;20521;-88
2023/12/22 09:35:41;;;;;;;13.97;4.50;;;8.30;49.60;;;;;;5081677;28;20546;-88
2023/12/22 09:38:08;;;;;;;13.37;4.23;;;8.20;49.20;;;;;;5081369;28;20180;-88
2023/12/22 09:40:36;;;;;;;19.03;4.53;;;8.20;49.40;;;;;;5092709;28;20187;-87
2023/12/22 09:43:12;;;;;;;16.47;4.03;;;8.20;49.00;;;;;;5076717;28;20264;-87
2023/12/22 09:45:42;;;;;;;18.37;4.50;;;8.30;49.50;;;;;;5075484;28;20176;-89
2023/12/22 09:48:10;;;;;;;14.23;3.93;;;8.40;49.60;;;;;;5090846;28;20183;-89
2023/12/22 09:50:38;;;;;;;16.90;4.47;;;8.40;49.30;;;;;;5091026;28;20320;-89
2023/12/22 09:53:05;;;;;;;10.93;3.97;;;8.50;49.00;;;;;;5091495;28;20211;-87
2023/12/22 09:55:32;;;;;;;12.23;3.97;;;8.50;49.10;;;;;;5094603;28;20175;-89
2023/12/22 09:57:59;;;;;;;13.07;4.43;;;8.40;48.30;;;;;;5092661;28;20195;-87
2023/12/22 10:00:28;;;;;;;11.23;3.47;;;8.40;48.40;;;;;;5080219;28;20245;-90
2023/12/22 10:02:54;;;;;;;10.63;3.40;;;8.40;48.90;;;;;;5085140;28;20180;-90
2023/12/22 10:05:21;;;;;;;13.77;3.80;;;8.40;48.90;;;;;;5080638;28;20191;-89
2023/12/22 10:07:48;;;;;;;16.53;4.50;;;8.40;48.60;;;;;;5079156;28;20198;-90
2023/12/22 10:10:15;;;;;;;6.30;2.53;;;8.40;48.80;;;;;;5094198;28;20180;-87
2023/12/22 10:12:44;;;;;;;6.03;2.97;;;8.10;51.40;;;;;;5077829;28;20188;-88
2023/12/22 10:15:12;;;;;;;7.70;3.20;;;7.40;53.30;;;;;;5081508;28;20271;-88
2023/12/22 10:17:38;;;;;;;4.70;2.90;;;6.70;55.20;;;;;;5080528;28;20192;-87
2023/12/22 10:20:04;;;;;;;6.93;2.60;;;6.20;57.40;;;;;;5118309;28;20195;-84
2023/12/22 10:22:29;;;;;;;4.43;2.60;;;5.80;58.60;;;;;;5094333;28;20184;-86
2023/12/22 10:24:55;;;;;;;3.87;2.20;;;5.70;61.30;;;;;;5100068;28;20217;-85
2023/12/22 10:27:23;;;;;;;6.07;2.00;;;5.40;61.50;;;;;;5114487;28;20708;-87
2023/12/22 10:29:58;;;;;;;2.90;2.10;;;5.30;63.10;;;;;;5105023;27;20269;-87
2023/12/22 10:32:24;;;;;;;3.83;3.07;;;5.20;63.70;;;;;;5098150;28;20186;-87
2023/12/22 10:34:53;;;;;;;4.23;3.20;;;5.20;64.40;;;;;;5096584;28;20179;-87
2023/12/22 10:37:19;;;;;;;4.07;1.57;;;5.10;65.30;;;;;;5097714;28;20172;-87
2023/12/22 10:39:48;;;;;;;1.40;1.30;;;5.00;65.40;;;;;;5093408;28;20199;-85
2023/12/22 10:42:14;;;;;;;4.23;1.60;;;5.00;65.60;;;;;;5096757;27;20642;-86
2023/12/22 10:44:41;;;;;;;2.20;1.30;;;4.90;66.40;;;;;;5124916;27;20187;-85
2023/12/22 10:47:07;;;;;;;2.80;1.27;;;4.90;66.30;;;;;;5097773;28;20172;-85
2023/12/22 10:49:33;;;;;;;2.33;1.50;;;4.80;67.00;;;;;;5088891;28;20214;-85
2023/12/22 10:51:59;;;;;;;3.13;1.70;;;4.90;67.30;;;;;;5089623;28;20406;-86
2023/12/22 10:54:25;;;;;;;4.37;1.73;;;4.90;67.40;;;;;;5100899;28;20180;-85
2023/12/22 10:56:52;;;;;;;7.87;2.10;;;4.80;68.00;;;;;;5088360;28;20179;-85
2023/12/22 10:59:25;;;;;;;6.10;1.97;;;5.00;67.70;;;;;;5093278;28;20228;-84
2023/12/22 11:01:53;;;;;;;9.17;2.47;;;5.10;67.70;;;;;;5083876;28;20234;-85
2023/12/22 11:04:20;;;;;;;6.73;2.47;;;5.00;67.60;;;;;;5091767;28;20217;-85
2023/12/22 11:06:48;;;;;;;6.60;2.30;;;5.10;67.70;;;;;;5090862;28;20180;-85
2023/12/22 11:09:17;;;;;;;8.73;3.27;;;5.20;68.10;;;;;;5103220;28;20268;-85
2023/12/22 11:11:42;;;;;;;11.13;3.10;;;5.10;67.00;;;;;;5082703;28;20215;-86
2023/12/22 11:14:09;;;;;;;11.60;2.73;;;5.10;67.20;;;;;;5109675;28;20237;-86
2023/12/22 11:16:35;;;;;;;12.53;2.93;;;5.20;67.60;;;;;;5088379;28;20228;-85
2023/12/22 11:19:02;;;;;;;9.60;3.03;;;5.40;68.20;;;;;;5092220;28;20199;-85
2023/12/22 11:21:29;;;;;;;8.00;2.90;;;5.30;68.30;;;;;;5090819;28;20240;-85
2023/12/22 11:23:55;;;;;;;13.83;3.10;;;5.30;68.70;;;;;;5095457;28;20182;-86
2023/12/22 11:26:22;;;;;;;8.40;2.97;;;5.30;68.30;;;;;;5096141;27;20707;-85
2023/12/22 11:28:52;;;;;;;11.53;3.10;;;5.30;67.90;;;;;;5101863;27;20652;-85
2023/12/22 11:31:18;;;;;;;8.43;3.20;;;5.30;68.40;;;;;;5096272;28;20225;-85
2023/12/22 11:33:46;;;;;;;9.60;4.10;;;5.30;68.20;;;;;;5114673;28;20180;-86
2023/12/22 11:36:13;;;;;;;10.93;3.50;;;5.30;68.80;;;;;;5112148;28;20172;-85
2023/12/22 11:38:40;;;;;;;16.13;3.80;;;5.40;69.10;;;;;;5113309;28;20255;-85
2023/12/22 11:41:10;;;;;;;5.67;3.87;;;5.40;69.00;;;;;;5115442;27;20190;-86
2023/12/22 11:43:38;;;;;;;9.53;4.27;;;5.60;69.40;;;;;;5086971;28;20179;-86
2023/12/22 11:46:04;;;;;;;9.20;4.13;;;5.50;69.40;;;;;;5081606;27;20176;-85
2023/12/22 11:48:30;;;;;;;8.83;4.27;;;5.60;69.40;;;;;;5095794;27;20595;-85
2023/12/22 11:50:55;;;;;;;8.87;4.43;;;5.60;69.60;;;;;;5108236;27;20176;-87
2023/12/22 11:53:23;;;;;;;11.13;4.00;;;5.80;70.10;;;;;;5102285;28;20191;-85
2023/12/22 11:56:10;;;;;;;6.03;4.13;;;5.60;70.20;;;;;;5080443;28;20180;-86
2023/12/22 11:58:40;;;;;;;14.83;5.80;;;5.70;70.30;;;;;;5077182;28;20199;-85
2023/12/22 12:01:08;;;;;;;9.90;4.13;;;5.80;70.40;;;;;;5088662;28;20176;-85
2023/12/22 12:03:47;;;;;;;10.47;3.97;;;5.70;70.20;;;;;;5082350;28;20177;-84
2023/12/22 12:06:13;;;;;;;6.77;4.00;;;5.70;71.20;;;;;;5086419;28;20187;-86
2023/12/22 12:08:39;;;;;;;10.17;3.93;;;5.70;71.20;;;;;;5090987;28;20184;-85
2023/12/22 12:11:06;;;;;;;8.27;3.83;;;5.70;71.80;;;;;;5080584;28;20245;-86
2023/12/22 12:13:33;;;;;;;8.60;3.50;;;5.80;72.60;;;;;;5093369;28;20247;-86
2023/12/22 12:16:01;;;;;;;6.67;3.40;;;5.90;73.20;;;;;;5081930;28;20184;-87
2023/12/22 12:18:32;;;;;;;13.30;4.40;;;5.80;73.40;;;;;;5092678;28;20211;-87
2023/12/22 12:20:58;;;;;;;9.97;3.80;;;5.90;73.80;;;;;;5114242;28;20211;-88
2023/12/22 12:23:24;;;;;;;6.57;3.73;;;5.80;74.30;;;;;;5094949;28;20195;-88
2023/12/22 12:25:50;;;;;;;11.17;3.70;;;5.80;74.40;;;;;;5095561;28;20176;-87
2023/12/22 12:28:18;;;;;;;8.13;3.87;;;5.90;74.90;;;;;;5112850;28;20194;-85
2023/12/22 12:30:45;;;;;;;15.47;4.17;;;5.90;75.50;;;;;;5095260;28;20176;-86
2023/12/22 12:33:13;;;;;;;11.83;3.50;;;5.80;75.10;;;;;;5088909;28;20183;-86
2023/12/22 12:35:40;;;;;;;9.37;3.70;;;5.80;75.30;;;;;;5086825;28;20651;-86
2023/12/22 12:38:06;;;;;;;10.07;3.37;;;5.80;75.60;;;;;;5095853;28;20223;-86
2023/12/22 12:40:34;;;;;;;8.40;3.03;;;5.80;75.90;;;;;;5113272;28;20184;-86
2023/12/22 12:43:02;;;;;;;7.50;3.17;;;5.80;76.20;;;;;;5090276;28;20196;-86
2023/12/22 12:45:28;;;;;;;7.30;3.00;;;5.90;76.50;;;;;;5082506;28;20180;-87